Time;durP1;ratioP1;P1;durP2;ratioP2;P2;SDS_P1;SDS_P2;PMS_P1;PMS_P2;Temp;Humidity;BMP_temperature;BMP_pressure;BME280_temperature;BME280_humidity;BME280_pressure;Samples;Min_cycle;Max_cycle;Signal;HPM_P1;HPM_P2
2023/04/24 05:51:59;;;;;;;5.45;3.15;;;;;;;;;;10524381;28;20440;-84
2023/04/24 05:57:04;;;;;;;;;;;;;;;;;;10524301;28;20032;-85
2023/04/24 06:02:05;;;;;;;7.53;4.53;;;;;;;;;;10513965;22;19921;-83
2023/04/24 06:07:06;;;;;;;5.32;3.72;;;;;;;;;;10423730;28;20026;-83
2023/04/24 06:12:08;;;;;;;4.35;3.50;;;;;;;;;;10419003;28;20030;-84
2023/04/24 06:17:09;;;;;;;7.78;6.40;;;;;;;;;;10423380;28;20028;-83
2023/04/24 06:22:10;;;;;;;;;;;;;;;;;;10419672;28;20032;-83
2023/04/24 06:27:11;;;;;;;6.72;5.60;;;;;;;;;;10420299;28;19911;-83
2023/04/24 06:32:12;;;;;;;5.47;4.35;;;;;;;;;;10419323;28;20068;-83
2023/04/24 06:37:14;;;;;;;7.95;5.28;;;;;;;;;;10420924;28;20487;-83
2023/04/24 06:42:15;;;;;;;6.32;4.20;;;;;;;;;;10422169;28;20018;-83
2023/04/24 06:47:16;;;;;;;;;;;;;;;;;;10421174;28;20075;-83
2023/04/24 06:52:17;;;;;;;6.05;4.22;;;;;;;;;;10419403;28;19906;-83
2023/04/24 06:57:18;;;;;;;;;;;;;;;;;;10421746;28;20041;-82
2023/04/24 07:02:19;;;;;;;4.03;2.10;;;;;;;;;;10398545;28;19923;-80
2023/04/24 07:07:28;;;;;;;2.45;1.75;;;;;;;;;;10397570;28;20558;-81
2023/04/24 07:12:30;;;;;;;2.85;1.77;;;;;;;;;;10393491;28;20080;-79
2023/04/24 07:17:31;;;;;;;;;;;;;;;;;;10395310;28;20486;-78
2023/04/24 07:22:32;;;;;;;2.42;1.90;;;;;;;;;;10388186;28;19909;-78
2023/04/24 07:27:33;;;;;;;;;;;;;;;;;;10383775;28;20095;-79
2023/04/24 07:32:34;;;;;;;7.07;2.90;;;;;;;;;;10387625;28;20333;-78
2023/04/24 07:37:36;;;;;;;6.30;4.20;;;;;;;;;;10387826;28;20021;-83
2023/04/24 07:42:38;;;;;;;8.48;6.88;;;;;;;;;;10391037;28;20152;-81
2023/04/24 07:47:39;;;;;;;23.45;18.60;;;;;;;;;;10387578;28;20022;-79
2023/04/24 07:52:40;;;;;;;31.83;25.30;;;;;;;;;;10383080;28;20026;-79
2023/04/24 07:57:41;;;;;;;;;;;;;;;;;;10384614;28;20076;-80
2023/04/24 08:02:42;;;;;;;17.58;12.07;;;;;;;;;;10383198;28;19977;-81
2023/04/24 08:07:45;;;;;;;;;;;;;;;;;;10384631;28;20033;-82
2023/04/24 08:12:46;;;;;;;12.02;7.65;;;;;;;;;;10384381;28;19906;-81
2023/04/24 08:17:47;;;;;;;;;;;;;;;;;;10385092;28;20121;-81
2023/04/24 08:22:48;;;;;;;12.45;8.30;;;;;;;;;;10383678;28;19927;-80
2023/04/24 08:27:49;;;;;;;7.35;4.68;;;;;;;;;;10386174;28;20034;-80
2023/04/24 08:32:50;;;;;;;10.48;5.93;;;;;;;;;;10392732;28;20097;-80
2023/04/24 08:37:53;;;;;;;8.90;5.13;;;;;;;;;;10400276;28;20106;-81
2023/04/24 08:42:56;;;;;;;5.70;3.60;;;;;;;;;;10383326;28;20030;-79
2023/04/24 08:47:58;;;;;;;5.35;3.35;;;;;;;;;;10386242;28;20028;-80
2023/04/24 08:53:01;;;;;;;5.35;3.50;;;;;;;;;;10386395;28;20034;-80
2023/04/24 08:58:02;;;;;;;8.40;3.25;;;;;;;;;;10387820;28;20125;-82
2023/04/24 09:03:05;;;;;;;5.90;3.33;;;;;;;;;;10387731;28;20567;-82
2023/04/24 09:08:06;;;;;;;4.85;2.90;;;;;;;;;;10388593;28;20026;-82
2023/04/24 09:13:11;;;;;;;6.82;3.10;;;;;;;;;;10393789;28;20022;-83
2023/04/24 09:18:12;;;;;;;4.88;2.40;;;;;;;;;;10389762;28;20026;-82
2023/04/24 09:23:17;;;;;;;4.78;2.80;;;;;;;;;;10388121;28;20038;-81
2023/04/24 09:28:18;;;;;;;3.53;1.90;;;;;;;;;;10388836;28;20029;-82
2023/04/24 09:33:20;;;;;;;4.72;1.80;;;;;;;;;;10389517;28;20159;-84
2023/04/24 09:38:31;;;;;;;3.22;1.80;;;;;;;;;;10390798;28;20033;-83
2023/04/24 09:43:32;;;;;;;3.25;1.80;;;;;;;;;;10390470;28;20026;-83
2023/04/24 09:48:34;;;;;;;4.07;1.40;;;;;;;;;;10389070;28;20034;-82
2023/04/24 09:53:35;;;;;;;2.97;1.45;;;;;;;;;;10403386;28;20029;-83
2023/04/24 09:58:37;;;;;;;4.10;1.90;;;;;;;;;;10396089;28;20030;-80
2023/04/24 10:03:38;;;;;;;2.15;1.52;;;;;;;;;;10386990;28;20036;-82
2023/04/24 10:08:39;;;;;;;3.80;1.90;;;;;;;;;;10388269;28;20034;-83
2023/04/24 10:13:40;;;;;;;;;;;;;;;;;;10385540;28;20026;-82
2023/04/24 10:18:41;;;;;;;3.50;2.50;;;;;;;;;;10386044;28;19915;-83
2023/04/24 10:23:45;;;;;;;3.10;1.90;;;;;;;;;;10385162;28;20030;-82
2023/04/24 10:28:47;;;;;;;7.50;2.10;;;;;;;;;;10385777;28;20048;-82
2023/04/24 10:33:50;;;;;;;5.90;2.10;;;;;;;;;;10383966;28;20018;-83
2023/04/24 10:38:52;;;;;;;4.20;2.75;;;;;;;;;;10393401;28;20026;-83
2023/04/24 10:44:14;;;;;;;4.32;2.40;;;;;;;;;;10391995;28;20053;-84
2023/04/24 10:49:15;;;;;;;5.15;2.47;;;;;;;;;;10391115;28;20479;-81
2023/04/24 10:54:27;;;;;;;4.35;2.53;;;;;;;;;;10397243;28;20145;-81
2023/04/24 10:59:37;;;;;;;7.78;2.08;;;;;;;;;;10397650;28;20034;-85
2023/04/24 11:04:38;;;;;;;7.97;2.72;;;;;;;;;;10400243;28;20094;-84
2023/04/24 11:09:43;;;;;;;14.90;3.13;;;;;;;;;;10396109;28;20041;-83
2023/04/24 11:14:57;;;;;;;7.50;2.55;;;;;;;;;;10395217;28;20022;-84
2023/04/24 11:20:04;;;;;;;8.60;2.60;;;;;;;;;;10395018;28;20036;-83
2023/04/24 11:25:05;;;;;;;9.98;2.92;;;;;;;;;;10392866;28;20117;-83
2023/04/24 11:30:07;;;;;;;8.43;3.00;;;;;;;;;;10388494;28;20461;-79
2023/04/24 11:35:16;;;;;;;5.90;3.22;;;;;;;;;;10386326;28;20053;-80
2023/04/24 11:40:20;;;;;;;5.80;2.70;;;;;;;;;;10386873;28;20038;-79
2023/04/24 11:45:25;;;;;;;5.82;2.58;;;;;;;;;;10384685;28;20049;-78
2023/04/24 11:50:27;;;;;;;5.25;2.35;;;;;;;;;;10386495;28;20547;-78
2023/04/24 11:55:29;;;;;;;6.72;3.25;;;;;;;;;;10385065;28;20029;-78
2023/04/24 12:00:34;;;;;;;5.72;2.58;;;;;;;;;;10386323;28;20029;-79
2023/04/24 12:05:35;;;;;;;7.45;3.17;;;;;;;;;;10389302;28;20531;-80
2023/04/24 12:10:36;;;;;;;5.53;2.50;;;;;;;;;;10384508;28;20030;-80
2023/04/24 12:15:40;;;;;;;3.50;2.30;;;;;;;;;;10386011;28;20026;-80
2023/04/24 12:20:41;;;;;;;6.05;2.85;;;;;;;;;;10386339;28;20030;-80
2023/04/24 12:25:42;;;;;;;5.15;2.38;;;;;;;;;;10389051;28;20089;-79
2023/04/24 12:30:44;;;;;;;7.07;3.03;;;;;;;;;;10394239;28;20029;-80
2023/04/24 12:35:46;;;;;;;3.90;2.35;;;;;;;;;;10387990;28;20026;-80
2023/04/24 12:40:47;;;;;;;5.47;2.33;;;;;;;;;;10393075;28;20032;-79
2023/04/24 12:45:47;;;;;;;;;;;;;;;;;;10388245;28;20125;-79
2023/04/24 12:50:49;;;;;;;4.85;2.47;;;;;;;;;;10386435;28;19919;-80
2023/04/24 12:55:52;;;;;;;4.53;2.10;;;;;;;;;;10388943;28;20026;-80
2023/04/24 13:00:54;;;;;;;4.95;2.47;;;;;;;;;;10383285;28;20116;-79
2023/04/24 13:05:55;;;;;;;4.65;2.75;;;;;;;;;;10381488;28;20038;-80
2023/04/24 13:10:56;;;;;;;3.85;1.83;;;;;;;;;;10381733;28;20038;-81
2023/04/24 13:15:57;;;;;;;3.53;2.08;;;;;;;;;;10381807;28;20026;-79
2023/04/24 13:20:58;;;;;;;;;;;;;;;;;;10381736;28;20054;-79
2023/04/24 13:25:59;;;;;;;;;;;;;;;;;;10382791;28;19913;-80
2023/04/24 13:31:00;;;;;;;2.70;1.83;;;;;;;;;;10382942;28;19948;-79
2023/04/24 13:36:02;;;;;;;;;;;;;;;;;;10384394;28;20089;-80
2023/04/24 13:41:02;;;;;;;;;;;;;;;;;;10385272;28;19906;-80
2023/04/24 13:46:04;;;;;;;2.72;1.90;;;;;;;;;;10403947;28;19940;-79
2023/04/24 13:51:05;;;;;;;3.63;2.78;;;;;;;;;;10398988;28;20133;-80
2023/04/24 13:56:06;;;;;;;5.80;1.80;;;;;;;;;;10382734;28;20380;-80
2023/04/24 14:01:07;;;;;;;4.68;2.42;;;;;;;;;;10382149;28;20391;-80
2023/04/24 14:06:08;;;;;;;2.92;1.80;;;;;;;;;;10380821;28;20030;-79
2023/04/24 14:11:09;;;;;;;4.40;2.00;;;;;;;;;;10386082;28;20034;-80
2023/04/24 14:16:11;;;;;;;3.85;2.05;;;;;;;;;;10390899;28;20032;-79
2023/04/24 14:21:12;;;;;;;5.03;3.08;;;;;;;;;;10392838;28;20034;-79
2023/04/24 14:26:13;;;;;;;2.97;1.80;;;;;;;;;;10393292;28;20022;-79
2023/04/24 14:31:14;;;;;;;2.03;1.63;;;;;;;;;;10393967;28;20038;-79
2023/04/24 14:36:15;;;;;;;3.53;1.90;;;;;;;;;;10393839;28;20037;-80
2023/04/24 14:41:16;;;;;;;;;;;;;;;;;;10392418;28;20121;-83
2023/04/24 14:46:17;;;;;;;2.80;1.85;;;;;;;;;;10391272;28;19906;-80
2023/04/24 14:51:18;;;;;;;5.57;1.90;;;;;;;;;;10390676;28;20041;-80
2023/04/24 14:56:19;;;;;;;2.63;1.90;;;;;;;;;;10392413;28;20064;-80
2023/04/24 15:01:21;;;;;;;3.38;2.60;;;;;;;;;;10394888;28;20096;-79
2023/04/24 15:06:22;;;;;;;2.92;2.10;;;;;;;;;;10399508;28;20132;-79
2023/04/24 15:11:23;;;;;;;2.45;1.50;;;;;;;;;;10390287;28;20042;-78
2023/04/24 15:16:24;;;;;;;3.85;1.90;;;;;;;;;;10388606;28;20026;-79
2023/04/24 15:21:25;;;;;;;4.80;2.95;;;;;;;;;;10388232;28;20041;-80
2023/04/24 15:26:26;;;;;;;4.32;2.80;;;;;;;;;;10388134;28;20037;-78
2023/04/24 15:31:27;;;;;;;3.63;1.45;;;;;;;;;;10390274;28;20022;-79
2023/04/24 15:36:28;;;;;;;3.05;1.50;;;;;;;;;;10386896;28;20089;-80
2023/04/24 15:41:31;;;;;;;3.10;1.60;;;;;;;;;;10387514;28;20113;-78
2023/04/24 15:46:35;;;;;;;3.85;1.80;;;;;;;;;;10388568;28;20080;-80
2023/04/24 15:51:36;;;;;;;2.20;1.30;;;;;;;;;;10391281;28;20109;-84
2023/04/24 15:56:37;;;;;;;3.50;1.10;;;;;;;;;;10388843;28;20026;-81
2023/04/24 16:01:38;;;;;;;2.15;1.17;;;;;;;;;;10387536;28;20034;-80
2023/04/24 16:06:39;;;;;;;2.05;1.08;;;;;;;;;;10384568;28;20554;-78
2023/04/24 16:11:40;;;;;;;2.75;1.30;;;;;;;;;;10386923;28;20373;-82
2023/04/24 16:16:41;;;;;;;2.15;1.10;;;;;;;;;;10405702;28;20018;-79
2023/04/24 16:21:42;;;;;;;3.30;1.10;;;;;;;;;;10398535;28;20034;-77
2023/04/24 16:26:43;;;;;;;4.20;2.05;;;;;;;;;;10388073;28;20068;-81
2023/04/24 16:31:44;;;;;;;3.42;1.75;;;;;;;;;;10387835;28;20064;-81
2023/04/24 16:36:46;;;;;;;3.58;1.42;;;;;;;;;;10388162;28;20140;-81
2023/04/24 16:41:48;;;;;;;;;;;;;;;;;;10385836;28;20029;-81
2023/04/24 16:46:50;;;;;;;2.92;1.40;;;;;;;;;;10384278;28;19961;-81
2023/04/24 16:51:51;;;;;;;4.00;1.75;;;;;;;;;;10384330;28;20093;-81
2023/04/24 16:56:52;;;;;;;;;;;;;;;;;;10385705;28;20033;-81
2023/04/24 17:01:53;;;;;;;4.05;1.38;;;;;;;;;;10387300;28;19957;-81
2023/04/24 17:06:54;;;;;;;;;;;;;;;;;;10386912;28;20109;-80
2023/04/24 17:11:55;;;;;;;2.90;1.17;;;;;;;;;;10386411;28;19920;-81
2023/04/24 17:16:56;;;;;;;2.83;1.85;;;;;;;;;;10386781;28;20049;-82
2023/04/24 17:21:57;;;;;;;;;;;;;;;;;;10389052;28;20476;-82
2023/04/24 17:26:59;;;;;;;2.80;1.42;;;;;;;;;;10404677;28;19913;-82
2023/04/24 17:32:00;;;;;;;1.73;1.20;;;;;;;;;;10399970;28;20449;-83
2023/04/24 17:37:03;;;;;;;;;;;;;;;;;;10386712;28;20045;-81
2023/04/24 17:42:04;;;;;;;3.08;1.33;;;;;;;;;;10384861;28;19941;-82
2023/04/24 17:47:05;;;;;;;3.35;1.50;;;;;;;;;;10388223;28;20026;-82
2023/04/24 17:52:06;;;;;;;;;;;;;;;;;;10385671;28;20583;-82
2023/04/24 17:57:07;;;;;;;2.88;1.33;;;;;;;;;;10384818;28;19931;-83
2023/04/24 18:02:08;;;;;;;2.95;1.33;;;;;;;;;;10384454;28;20136;-81
2023/04/24 18:07:09;;;;;;;4.38;1.65;;;;;;;;;;10380454;28;20120;-80
2023/04/24 18:12:10;;;;;;;2.67;1.20;;;;;;;;;;10378566;28;20128;-80
2023/04/24 18:17:11;;;;;;;4.05;1.60;;;;;;;;;;10378767;28;20026;-81
2023/04/24 18:22:12;;;;;;;4.43;1.90;;;;;;;;;;10380511;28;20113;-80
2023/04/24 18:27:13;;;;;;;4.35;1.67;;;;;;;;;;10380714;28;20054;-81
2023/04/24 18:32:15;;;;;;;4.00;1.70;;;;;;;;;;10385452;28;20106;-80
2023/04/24 18:37:16;;;;;;;3.50;1.38;;;;;;;;;;10390929;28;20045;-80
2023/04/24 18:42:17;;;;;;;2.70;1.50;;;;;;;;;;10404148;28;20077;-80
2023/04/24 18:47:18;;;;;;;3.58;1.48;;;;;;;;;;10381063;28;20030;-81
2023/04/24 18:52:19;;;;;;;3.50;1.75;;;;;;;;;;10381480;28;20396;-81
2023/04/24 18:57:20;;;;;;;3.05;1.52;;;;;;;;;;10380829;28;20046;-81
2023/04/24 19:02:21;;;;;;;3.70;1.30;;;;;;;;;;10384082;28;20124;-81
2023/04/24 19:07:23;;;;;;;3.92;1.38;;;;;;;;;;10383836;28;20091;-82
2023/04/24 19:12:24;;;;;;;3.53;1.70;;;;;;;;;;10384267;28;20373;-81
